Time;durP1;ratioP1;P1;durP2;ratioP2;P2;SDS_P1;SDS_P2;PMS_P1;PMS_P2;Temp;Humidity;BMP_temperature;BMP_pressure;BME280_temperature;BME280_humidity;BME280_pressure;Samples;Min_cycle;Max_cycle;Signal;HPM_P1;HPM_P2
2023/05/18 00:00:45;;;;;;;5.53;2.90;;;10.00;99.90;;;;;;5075328;28;20548;-68
2023/05/18 00:03:12;;;;;;;8.13;2.77;;;10.00;99.90;;;;;;5075237;28;20458;-67
2023/05/18 00:05:41;;;;;;;2.80;1.90;;;10.00;99.90;;;;;;5075597;28;20450;-68
2023/05/18 00:08:09;;;;;;;6.27;2.00;;;9.90;99.90;;;;;;5075739;28;20546;-68
2023/05/18 00:10:36;;;;;;;4.97;1.70;;;9.90;99.90;;;;;;5075396;28;20462;-68
2023/05/18 00:13:04;;;;;;;5.67;2.10;;;9.90;99.90;;;;;;5075340;28;20513;-68
2023/05/18 00:15:31;;;;;;;3.43;2.10;;;9.90;99.90;;;;;;5075010;28;20519;-68
2023/05/18 00:17:57;;;;;;;7.87;2.17;;;9.80;99.90;;;;;;5074983;28;20461;-68
2023/05/18 00:20:25;;;;;;;7.80;2.50;;;9.90;99.90;;;;;;5075459;28;20454;-68
2023/05/18 00:22:52;;;;;;;5.10;1.67;;;9.80;99.90;;;;;;5075236;28;20577;-68
2023/05/18 00:25:20;;;;;;;8.53;2.20;;;9.80;99.90;;;;;;5075078;28;20464;-68
2023/05/18 00:27:48;;;;;;;6.97;1.90;;;9.80;99.90;;;;;;5074661;28;20454;-68
2023/05/18 00:30:15;;;;;;;3.30;2.03;;;9.80;99.90;;;;;;5074851;28;20468;-68
2023/05/18 00:32:42;;;;;;;4.87;2.20;;;9.80;99.90;;;;;;5074990;28;20450;-67
2023/05/18 00:35:09;;;;;;;7.03;2.60;;;9.70;99.90;;;;;;5074249;28;20545;-68
2023/05/18 00:37:36;;;;;;;7.70;2.53;;;9.70;99.90;;;;;;5074790;28;20912;-68
2023/05/18 00:40:05;;;;;;;4.53;2.60;;;9.70;99.90;;;;;;5074540;28;20496;-68
2023/05/18 00:42:33;;;;;;;10.43;3.07;;;9.70;99.90;;;;;;5074140;28;20990;-68
2023/05/18 00:45:00;;;;;;;5.77;2.10;;;9.70;99.90;;;;;;5074543;28;20516;-68
2023/05/18 00:47:27;;;;;;;6.90;2.10;;;9.70;99.90;;;;;;5074862;28;20458;-68
2023/05/18 00:49:54;;;;;;;5.80;2.20;;;9.60;99.90;;;;;;5074740;28;20771;-68
2023/05/18 00:52:21;;;;;;;5.37;2.17;;;9.60;99.90;;;;;;5074415;28;20450;-68
2023/05/18 00:54:48;;;;;;;9.97;2.53;;;9.60;99.90;;;;;;5074655;28;20547;-68
2023/05/18 00:57:17;;;;;;;9.53;2.20;;;9.60;99.90;;;;;;5074400;28;20942;-69
2023/05/18 00:59:46;;;;;;;4.60;2.20;;;9.60;99.90;;;;;;5074654;28;20485;-68
2023/05/18 01:02:13;;;;;;;6.87;2.23;;;9.60;99.90;;;;;;5074383;28;20478;-68
2023/05/18 01:04:41;;;;;;;9.47;1.90;;;9.50;99.90;;;;;;5074152;28;20477;-67
2023/05/18 01:07:09;;;;;;;7.17;2.40;;;9.50;99.90;;;;;;5073874;28;20946;-67
2023/05/18 01:09:37;;;;;;;7.17;2.17;;;9.50;99.90;;;;;;5074172;28;20497;-67
2023/05/18 01:12:10;;;;;;;7.00;2.30;;;9.40;99.90;;;;;;5073992;28;20450;-67
2023/05/18 01:14:44;;;;;;;7.30;2.27;;;9.50;99.90;;;;;;5074017;28;20882;-67
2023/05/18 01:17:25;;;;;;;7.03;1.97;;;9.40;99.90;;;;;;5074173;28;20450;-67
2023/05/18 01:20:13;;;;;;;4.00;1.87;;;9.40;99.90;;;;;;5074426;28;20453;-67
2023/05/18 01:22:55;;;;;;;4.83;1.63;;;9.40;99.90;;;;;;5074368;28;20498;-67
2023/05/18 01:25:33;;;;;;;3.90;2.20;;;9.30;99.90;;;;;;5074367;28;20442;-67
2023/05/18 01:28:05;;;;;;;11.20;2.90;;;9.30;99.90;;;;;;5074160;28;20488;-68
2023/05/18 01:30:33;;;;;;;5.97;2.40;;;9.30;99.90;;;;;;5074624;28;20545;-67
2023/05/18 01:33:00;;;;;;;7.10;1.93;;;9.30;99.90;;;;;;5073899;28;20461;-67
2023/05/18 01:35:27;;;;;;;3.93;2.27;;;9.30;99.90;;;;;;5074235;28;20466;-67
2023/05/18 01:37:54;;;;;;;4.80;2.33;;;9.30;99.90;;;;;;5073953;28;20540;-67
2023/05/18 01:40:21;;;;;;;3.93;1.70;;;9.30;99.90;;;;;;5073894;28;20512;-67
2023/05/18 01:42:55;;;;;;;5.00;1.97;;;9.30;99.90;;;;;;5073674;28;20895;-68
2023/05/18 01:45:28;;;;;;;6.33;2.47;;;9.20;99.90;;;;;;5074142;28;20526;-68
2023/05/18 01:47:58;;;;;;;5.97;1.80;;;9.20;99.90;;;;;;5075595;28;20882;-68
2023/05/18 01:50:36;;;;;;;4.80;2.10;;;9.20;99.90;;;;;;5078386;28;20450;-66
2023/05/18 01:53:08;;;;;;;6.10;2.20;;;9.20;99.90;;;;;;5077885;28;20772;-67
2023/05/18 01:55:36;;;;;;;5.17;2.00;;;9.20;99.90;;;;;;5078100;28;20773;-68
2023/05/18 01:58:06;;;;;;;5.60;1.87;;;9.10;99.90;;;;;;5077682;28;20449;-68
2023/05/18 02:00:35;;;;;;;3.97;1.80;;;9.10;99.90;;;;;;5078212;28;20541;-67
2023/05/18 02:03:02;;;;;;;4.00;1.93;;;9.10;99.90;;;;;;5077865;28;20528;-67
2023/05/18 02:05:29;;;;;;;6.23;2.53;;;9.10;99.90;;;;;;5077462;28;20466;-67
2023/05/18 02:07:56;;;;;;;7.00;2.40;;;9.00;99.90;;;;;;5077648;28;20454;-67
2023/05/18 02:10:22;;;;;;;4.67;2.00;;;9.00;99.90;;;;;;5077328;28;20465;-68
2023/05/18 02:12:51;;;;;;;4.20;1.87;;;9.00;99.90;;;;;;5077596;28;20454;-67
2023/05/18 02:15:18;;;;;;;4.80;2.03;;;9.00;99.90;;;;;;5077677;28;20758;-67
2023/05/18 02:17:47;;;;;;;5.27;1.87;;;9.00;99.90;;;;;;5077200;28;20458;-68
2023/05/18 02:20:17;;;;;;;5.90;2.40;;;9.00;99.90;;;;;;5077446;28;20517;-67
2023/05/18 02:22:44;;;;;;;6.60;2.50;;;8.90;99.90;;;;;;5077361;28;20830;-67
2023/05/18 02:25:11;;;;;;;3.47;2.10;;;9.00;99.90;;;;;;5077595;28;20462;-67
2023/05/18 02:27:38;;;;;;;8.90;2.50;;;8.90;99.90;;;;;;5077385;28;20458;-67
2023/05/18 02:30:07;;;;;;;9.67;2.10;;;8.90;99.90;;;;;;5077761;28;20548;-67
2023/05/18 02:32:37;;;;;;;8.23;2.27;;;8.90;99.90;;;;;;5077188;28;20458;-67
2023/05/18 02:35:05;;;;;;;6.83;2.43;;;8.90;99.90;;;;;;5077116;28;20523;-67
2023/05/18 02:37:38;;;;;;;4.80;2.00;;;8.90;99.90;;;;;;5076999;28;20940;-67
2023/05/18 02:40:06;;;;;;;8.13;2.50;;;8.90;99.90;;;;;;5076883;28;20494;-67
2023/05/18 02:42:33;;;;;;;6.77;2.30;;;8.90;99.90;;;;;;5077127;28;20513;-67
2023/05/18 02:45:01;;;;;;;5.43;2.17;;;8.90;99.90;;;;;;5076822;28;20458;-67
2023/05/18 02:47:28;;;;;;;5.30;1.80;;;8.90;99.90;;;;;;5077085;28;20862;-67
2023/05/18 02:49:55;;;;;;;5.53;2.23;;;8.90;99.90;;;;;;5076804;28;20464;-68
2023/05/18 02:52:23;;;;;;;5.80;2.20;;;8.90;99.90;;;;;;5076733;28;20978;-67
2023/05/18 02:54:49;;;;;;;6.80;2.63;;;8.90;99.90;;;;;;5076696;28;20549;-67
2023/05/18 02:57:16;;;;;;;5.53;2.13;;;8.90;99.90;;;;;;5076506;28;20454;-68
2023/05/18 02:59:43;;;;;;;7.33;2.13;;;8.90;99.90;;;;;;5076021;28;21022;-67
2023/05/18 03:02:13;;;;;;;5.77;2.20;;;8.90;99.90;;;;;;5076630;28;20488;-67
2023/05/18 03:04:40;;;;;;;7.63;2.50;;;8.90;99.90;;;;;;5076454;28;20501;-68
2023/05/18 03:07:07;;;;;;;5.97;2.30;;;8.80;99.90;;;;;;5076466;28;20490;-68
2023/05/18 03:09:35;;;;;;;6.87;2.50;;;8.80;99.90;;;;;;5076708;28;20636;-68
2023/05/18 03:12:02;;;;;;;8.93;2.90;;;8.80;99.90;;;;;;5076670;28;20529;-68
2023/05/18 03:14:29;;;;;;;4.90;2.37;;;8.80;99.90;;;;;;5076223;28;20450;-67
2023/05/18 03:16:56;;;;;;;5.47;2.63;;;8.80;99.90;;;;;;5076233;28;20490;-67
2023/05/18 03:19:23;;;;;;;4.03;2.33;;;8.70;99.90;;;;;;5076166;28;20458;-66
2023/05/18 03:21:50;;;;;;;3.50;1.77;;;8.70;99.90;;;;;;5076368;28;20451;-67
2023/05/18 03:24:17;;;;;;;7.77;2.17;;;8.70;99.90;;;;;;5076286;28;20537;-67
2023/05/18 03:26:45;;;;;;;7.27;2.80;;;8.70;99.90;;;;;;5076324;28;20458;-67
2023/05/18 03:29:12;;;;;;;8.57;1.90;;;8.70;99.90;;;;;;5076046;28;21018;-68
2023/05/18 03:31:39;;;;;;;6.27;2.30;;;8.70;99.90;;;;;;5076216;28;20454;-67
2023/05/18 03:34:06;;;;;;;7.27;2.37;;;8.70;99.90;;;;;;5076740;28;20524;-68
2023/05/18 03:36:34;;;;;;;5.67;2.20;;;8.70;99.90;;;;;;5076206;28;20553;-67
2023/05/18 03:39:01;;;;;;;8.47;1.93;;;8.60;99.90;;;;;;5075894;28;20482;-68
2023/05/18 03:41:28;;;;;;;8.53;2.60;;;8.60;99.90;;;;;;5075824;28;20929;-67
2023/05/18 03:43:56;;;;;;;5.20;1.50;;;8.60;99.90;;;;;;5075833;28;20489;-67
2023/05/18 03:46:23;;;;;;;8.13;2.33;;;8.60;99.90;;;;;;5075891;28;20496;-67
2023/05/18 03:48:52;;;;;;;4.40;2.20;;;8.60;99.90;;;;;;5075526;28;20545;-68
2023/05/18 03:51:19;;;;;;;2.77;1.97;;;8.50;99.90;;;;;;5075856;28;20454;-68
2023/05/18 03:53:47;;;;;;;6.17;2.53;;;8.50;99.90;;;;;;5075594;28;20902;-68
2023/05/18 03:56:14;;;;;;;9.33;2.40;;;8.50;99.90;;;;;;5075793;28;20458;-67
2023/05/18 03:58:41;;;;;;;5.30;1.90;;;8.50;99.90;;;;;;5075724;28;20454;-67
2023/05/18 04:01:09;;;;;;;8.17;2.60;;;8.40;99.90;;;;;;5075344;28;20577;-66
2023/05/18 04:03:36;;;;;;;5.20;1.83;;;8.40;99.90;;;;;;5075781;28;20481;-67
2023/05/18 04:06:03;;;;;;;3.90;2.63;;;8.40;99.90;;;;;;5075495;28;20557;-68
2023/05/18 04:08:33;;;;;;;5.63;2.47;;;8.40;99.90;;;;;;5075617;28;20843;-68
2023/05/18 04:11:00;;;;;;;7.40;2.50;;;8.40;99.90;;;;;;5074731;28;20789;-67
2023/05/18 04:13:26;;;;;;;6.37;2.47;;;8.50;99.90;;;;;;5075534;28;20821;-67
2023/05/18 04:15:53;;;;;;;5.70;1.77;;;8.50;99.90;;;;;;5075246;28;20541;-68
2023/05/18 04:18:22;;;;;;;6.40;2.47;;;8.50;99.90;;;;;;5075941;28;20839;-67
2023/05/18 04:20:49;;;;;;;5.10;2.00;;;8.50;99.90;;;;;;5075486;28;20468;-68
2023/05/18 04:23:16;;;;;;;6.10;2.90;;;8.50;99.90;;;;;;5074996;28;20558;-68
2023/05/18 04:25:43;;;;;;;3.93;2.00;;;8.50;99.90;;;;;;5074800;28;20553;-68
2023/05/18 04:28:09;;;;;;;2.67;2.10;;;8.50;99.90;;;;;;5075370;28;20486;-68
2023/05/18 04:30:37;;;;;;;5.50;2.87;;;8.50;99.90;;;;;;5075417;28;20450;-68
2023/05/18 04:33:05;;;;;;;4.20;2.77;;;8.50;99.90;;;;;;5076028;28;20454;-67
2023/05/18 04:35:33;;;;;;;9.70;3.03;;;8.50;99.90;;;;;;5075299;28;20545;-68
2023/05/18 04:38:01;;;;;;;10.03;2.90;;;8.50;99.90;;;;;;5074857;28;20458;-68
2023/05/18 04:40:28;;;;;;;6.63;2.60;;;8.60;99.90;;;;;;5075672;28;20485;-67
2023/05/18 04:42:54;;;;;;;6.73;2.40;;;8.60;99.90;;;;;;5076559;28;20494;-68
2023/05/18 04:45:21;;;;;;;5.30;2.10;;;8.60;99.90;;;;;;5078043;28;20545;-67
2023/05/18 04:47:52;;;;;;;5.10;2.07;;;8.60;99.90;;;;;;5076567;28;20460;-67
2023/05/18 04:50:19;;;;;;;8.00;2.63;;;8.60;99.90;;;;;;5076407;28;20478;-68
2023/05/18 04:52:50;;;;;;;5.73;2.60;;;8.60;99.90;;;;;;5076271;28;20561;-67
2023/05/18 04:55:21;;;;;;;6.03;2.50;;;8.70;99.90;;;;;;5075433;28;20449;-67
2023/05/18 04:57:49;;;;;;;7.73;2.20;;;8.70;99.90;;;;;;5075035;28;20563;-67
2023/05/18 05:00:17;;;;;;;5.97;1.87;;;8.70;99.90;;;;;;5075009;28;20458;-68
2023/05/18 05:02:44;;;;;;;8.10;2.90;;;8.80;99.90;;;;;;5074483;28;20489;-68
2023/05/18 05:05:10;;;;;;;16.00;2.80;;;8.80;99.90;;;;;;5074643;28;20458;-68
2023/05/18 05:07:37;;;;;;;7.87;2.70;;;8.90;99.90;;;;;;5074223;28;20544;-67
2023/05/18 05:10:07;;;;;;;5.70;2.20;;;8.90;99.90;;;;;;5074619;28;20454;-68
2023/05/18 05:12:36;;;;;;;6.10;2.40;;;8.90;99.90;;;;;;5074673;28;20454;-68
2023/05/18 05:15:03;;;;;;;5.57;2.30;;;8.90;99.90;;;;;;5074632;28;20480;-68
2023/05/18 05:17:30;;;;;;;6.10;2.50;;;8.90;99.90;;;;;;5074608;28;20968;-68
2023/05/18 05:19:57;;;;;;;8.20;2.13;;;9.00;99.90;;;;;;5074554;28;20454;-67
2023/05/18 05:22:24;;;;;;;8.90;2.33;;;9.00;99.90;;;;;;5074290;28;20458;-67
2023/05/18 05:24:51;;;;;;;9.53;3.70;;;9.10;99.90;;;;;;5074329;28;20450;-68
2023/05/18 05:27:19;;;;;;;7.40;2.90;;;9.10;99.90;;;;;;5074533;28;20541;-67
2023/05/18 05:29:47;;;;;;;5.77;1.93;;;9.20;99.90;;;;;;5074565;28;20542;-68
2023/05/18 05:32:13;;;;;;;5.27;2.50;;;9.20;99.90;;;;;;5074604;28;20793;-68
2023/05/18 05:34:44;;;;;;;8.30;2.67;;;9.20;99.90;;;;;;5074531;28;20533;-68
2023/05/18 05:37:11;;;;;;;4.97;2.40;;;9.30;99.90;;;;;;5074682;28;20438;-68
2023/05/18 05:39:38;;;;;;;9.33;2.43;;;9.30;99.90;;;;;;5073756;28;20568;-68
2023/05/18 05:42:07;;;;;;;8.90;3.20;;;9.30;99.90;;;;;;5074330;28;20533;-68
2023/05/18 05:44:35;;;;;;;6.77;2.13;;;9.40;99.90;;;;;;5074518;28;20478;-68
2023/05/18 05:47:02;;;;;;;5.73;2.17;;;9.40;99.90;;;;;;5073886;28;20458;-67
2023/05/18 05:49:29;;;;;;;7.57;2.30;;;9.40;99.90;;;;;;5074267;28;20464;-67
2023/05/18 05:51:56;;;;;;;5.70;1.97;;;9.50;99.90;;;;;;5074274;28;20458;-67
2023/05/18 05:54:23;;;;;;;8.77;2.30;;;9.50;99.90;;;;;;5073719;28;20450;-67
2023/05/18 05:56:50;;;;;;;7.37;3.27;;;9.50;99.90;;;;;;5074135;28;20468;-67
2023/05/18 05:59:16;;;;;;;3.43;2.47;;;9.60;99.90;;;;;;5073789;28;20847;-67
2023/05/18 06:01:45;;;;;;;6.70;2.63;;;9.60;99.90;;;;;;5073729;28;20936;-67
2023/05/18 06:04:14;;;;;;;8.63;2.80;;;9.60;99.90;;;;;;5073610;28;20890;-67
2023/05/18 06:06:42;;;;;;;6.57;2.20;;;9.70;99.90;;;;;;5073836;28;20462;-68
2023/05/18 06:09:09;;;;;;;6.83;2.67;;;9.70;99.90;;;;;;5074004;28;20565;-67
2023/05/18 06:11:36;;;;;;;9.13;2.30;;;9.80;99.90;;;;;;5073792;28;20531;-69
2023/05/18 06:14:03;;;;;;;14.53;2.63;;;9.80;99.90;;;;;;5073900;28;20482;-68
2023/05/18 06:16:30;;;;;;;6.90;1.80;;;9.90;99.90;;;;;;5073944;28;20464;-67
2023/05/18 06:18:58;;;;;;;8.03;2.10;;;10.00;99.90;;;;;;5073640;28;20907;-67
2023/05/18 06:21:25;;;;;;;7.30;2.53;;;10.00;99.90;;;;;;5073546;28;20465;-67
2023/05/18 06:23:52;;;;;;;7.17;2.30;;;10.10;99.90;;;;;;5073500;28;20569;-67
2023/05/18 06:26:20;;;;;;;5.03;2.07;;;10.10;99.90;;;;;;5073538;28;20465;-67
2023/05/18 06:28:47;;;;;;;7.90;2.43;;;10.20;99.90;;;;;;5073603;28;20468;-68
2023/05/18 06:31:14;;;;;;;8.77;2.50;;;10.30;99.90;;;;;;5074009;28;20551;-67
2023/05/18 06:33:41;;;;;;;6.50;2.77;;;10.30;99.90;;;;;;5075121;28;20463;-68
2023/05/18 06:36:10;;;;;;;6.90;2.30;;;10.30;99.90;;;;;;5077327;28;20454;-67
2023/05/18 06:38:36;;;;;;;5.80;2.40;;;10.40;99.90;;;;;;5077420;28;20565;-67
2023/05/18 06:41:03;;;;;;;6.60;2.53;;;10.50;99.90;;;;;;5077333;28;20785;-67
2023/05/18 06:43:30;;;;;;;10.83;3.20;;;10.50;99.90;;;;;;5077114;28;20821;-67
2023/05/18 06:45:57;;;;;;;4.80;2.00;;;10.60;99.90;;;;;;5076975;28;20550;-68
2023/05/18 06:48:27;;;;;;;4.33;2.60;;;10.70;99.90;;;;;;5076828;28;20542;-66
2023/05/18 06:50:54;;;;;;;8.70;2.20;;;10.70;99.90;;;;;;5076970;28;20538;-68
2023/05/18 06:53:22;;;;;;;7.77;2.70;;;10.70;99.90;;;;;;5077092;28;20450;-67
2023/05/18 06:55:49;;;;;;;4.17;1.60;;;10.80;99.90;;;;;;5077075;28;20644;-67
2023/05/18 06:58:16;;;;;;;8.00;2.30;;;10.80;99.90;;;;;;5076678;28;20454;-67
2023/05/18 07:00:43;;;;;;;5.60;2.10;;;10.90;99.90;;;;;;5077060;28;20464;-67
2023/05/18 07:03:10;;;;;;;4.50;1.87;;;10.90;99.90;;;;;;5076910;28;21029;-67
2023/05/18 07:05:37;;;;;;;6.67;2.20;;;10.90;99.90;;;;;;5076706;28;20958;-67
2023/05/18 07:08:04;;;;;;;5.20;2.40;;;11.00;99.90;;;;;;5076390;28;20458;-67
2023/05/18 07:10:34;;;;;;;3.93;1.70;;;11.00;99.90;;;;;;5076510;28;20794;-67
2023/05/18 07:13:01;;;;;;;6.67;2.00;;;11.00;99.90;;;;;;5076512;28;20845;-67
2023/05/18 07:15:28;;;;;;;8.80;2.80;;;11.10;99.90;;;;;;5076795;28;20512;-67
2023/05/18 07:17:54;;;;;;;7.13;3.23;;;11.10;99.90;;;;;;5076180;28;20454;-68
2023/05/18 07:20:21;;;;;;;3.73;1.60;;;11.10;99.90;;;;;;5076645;28;20462;-68
2023/05/18 07:22:49;;;;;;;4.00;1.90;;;11.20;99.90;;;;;;5076286;28;20450;-68
2023/05/18 07:25:16;;;;;;;7.63;2.97;;;11.20;99.90;;;;;;5076358;28;20482;-67
2023/05/18 07:27:45;;;;;;;7.70;2.33;;;11.30;99.90;;;;;;5076251;28;20450;-67
2023/05/18 07:30:12;;;;;;;6.30;3.17;;;11.30;99.90;;;;;;5076482;28;20973;-68
2023/05/18 07:32:39;;;;;;;3.27;1.83;;;11.30;99.90;;;;;;5076522;28;20480;-68
2023/05/18 07:35:06;;;;;;;9.30;2.20;;;11.40;99.90;;;;;;5076030;28;20540;-68
2023/05/18 07:37:33;;;;;;;4.57;1.70;;;11.40;99.90;;;;;;5075948;28;20454;-67
2023/05/18 07:40:00;;;;;;;7.90;2.07;;;11.50;99.90;;;;;;5076270;28;20497;-68
2023/05/18 07:42:27;;;;;;;5.77;1.67;;;11.60;99.90;;;;;;5076272;28;20554;-68
2023/05/18 07:44:55;;;;;;;4.67;1.90;;;11.60;99.90;;;;;;5075267;28;20477;-69
2023/05/18 07:47:22;;;;;;;5.73;1.77;;;11.70;99.90;;;;;;5076824;28;20537;-68
2023/05/18 07:49:49;;;;;;;8.97;2.27;;;11.70;99.90;;;;;;5076513;28;20467;-68
2023/05/18 07:52:16;;;;;;;7.83;2.33;;;11.80;99.90;;;;;;5076070;28;20783;-68
2023/05/18 07:54:43;;;;;;;3.50;1.60;;;12.00;99.90;;;;;;5075912;28;20450;-68
2023/05/18 07:57:10;;;;;;;4.50;1.97;;;12.00;99.90;;;;;;5075959;28;20458;-67
2023/05/18 07:59:36;;;;;;;4.00;1.80;;;12.20;99.90;;;;;;5076012;28;20549;-67
2023/05/18 08:02:05;;;;;;;7.53;1.90;;;12.30;99.90;;;;;;5075924;28;20829;-68
2023/05/18 08:04:32;;;;;;;3.73;2.40;;;12.40;99.90;;;;;;5075821;28;20474;-68
2023/05/18 08:06:59;;;;;;;6.20;2.43;;;12.60;99.90;;;;;;5075626;28;20454;-68
2023/05/18 08:09:26;;;;;;;5.83;2.10;;;12.70;99.90;;;;;;5075954;28;20459;-67
2023/05/18 08:11:53;;;;;;;4.70;1.57;;;12.80;99.90;;;;;;5075896;28;20466;-68
2023/05/18 08:14:20;;;;;;;9.80;1.83;;;12.90;99.90;;;;;;5075280;28;20935;-67
2023/05/18 08:16:47;;;;;;;5.27;1.50;;;13.00;99.90;;;;;;5075259;28;20927;-68
2023/05/18 08:19:15;;;;;;;4.73;1.77;;;13.10;99.90;;;;;;5075343;28;20480;-68
2023/05/18 08:21:44;;;;;;;3.00;1.70;;;13.20;99.90;;;;;;5075492;28;20466;-68
2023/05/18 08:24:11;;;;;;;7.50;1.63;;;13.20;99.90;;;;;;5075748;28;20471;-68
2023/05/18 08:26:38;;;;;;;7.43;1.70;;;13.30;99.90;;;;;;5075492;28;20549;-68
2023/05/18 08:29:08;;;;;;;6.60;1.87;;;13.40;99.90;;;;;;5075621;28;20450;-67
2023/05/18 08:31:36;;;;;;;6.47;1.93;;;13.50;99.90;;;;;;5075418;28;20447;-68
2023/05/18 08:34:03;;;;;;;5.03;1.67;;;13.70;99.90;;;;;;5075613;28;20529;-67
2023/05/18 08:36:33;;;;;;;7.03;3.47;;;13.80;99.90;;;;;;5075370;28;20454;-68
2023/05/18 08:39:00;;;;;;;6.73;3.27;;;14.00;99.90;;;;;;5074979;28;20482;-68
2023/05/18 08:41:30;;;;;;;5.10;1.50;;;14.10;99.90;;;;;;5075142;28;20465;-68
2023/05/18 08:44:01;;;;;;;7.53;2.27;;;14.20;99.90;;;;;;5074890;28;20954;-68
2023/05/18 08:46:33;;;;;;;3.70;1.60;;;14.30;99.90;;;;;;5075640;28;20453;-67
2023/05/18 08:49:01;;;;;;;5.50;2.20;;;14.40;99.90;;;;;;5075132;28;20443;-68
2023/05/18 08:51:30;;;;;;;6.57;1.97;;;14.40;99.90;;;;;;5074930;28;20452;-68
2023/05/18 08:53:59;;;;;;;5.20;1.87;;;14.40;99.90;;;;;;5074990;28;20450;-68
2023/05/18 08:56:26;;;;;;;6.10;1.77;;;14.40;99.90;;;;;;5074519;28;20455;-67
2023/05/18 08:58:55;;;;;;;4.03;1.30;;;14.30;99.90;;;;;;5074485;28;20465;-67
2023/05/18 09:01:26;;;;;;;3.17;1.60;;;14.30;99.90;;;;;;5074849;28;20856;-67
2023/05/18 09:03:55;;;;;;;2.43;1.10;;;14.30;99.90;;;;;;5074907;28;20466;-67
2023/05/18 09:06:23;;;;;;;5.63;1.57;;;14.30;99.90;;;;;;5075335;28;20549;-67
2023/05/18 09:08:52;;;;;;;4.40;1.50;;;14.30;99.90;;;;;;5074616;28;20465;-67
2023/05/18 09:11:22;;;;;;;5.33;1.60;;;14.40;99.90;;;;;;5074838;28;20482;-68
2023/05/18 09:13:50;;;;;;;5.40;1.53;;;14.50;99.90;;;;;;5074726;28;20537;-68
2023/05/18 09:16:17;;;;;;;8.20;1.53;;;14.60;99.90;;;;;;5074539;28;20458;-67
2023/05/18 09:18:44;;;;;;;4.73;1.70;;;14.70;99.90;;;;;;5074788;28;20454;-68
2023/05/18 09:21:11;;;;;;;3.77;1.70;;;14.90;98.90;;;;;;5074547;28;20458;-69
2023/05/18 09:23:39;;;;;;;4.00;1.40;;;15.00;98.30;;;;;;5074494;28;20469;-67
2023/05/18 09:26:08;;;;;;;5.33;2.13;;;15.10;98.00;;;;;;5074502;28;20460;-68
2023/05/18 09:28:38;;;;;;;4.93;1.90;;;15.20;97.30;;;;;;5074088;28;20455;-67
2023/05/18 09:31:07;;;;;;;6.00;1.97;;;15.30;97.50;;;;;;5074700;28;20454;-67
2023/05/18 09:33:36;;;;;;;5.23;2.00;;;15.40;97.60;;;;;;5074872;28;20468;-67
2023/05/18 09:36:05;;;;;;;4.07;1.60;;;15.40;97.40;;;;;;5074589;28;20480;-67
2023/05/18 09:38:37;;;;;;;4.83;1.53;;;15.50;96.20;;;;;;5074243;28;20482;-67
2023/05/18 09:41:04;;;;;;;3.67;1.40;;;15.60;95.30;;;;;;5074508;28;20831;-67
2023/05/18 09:43:30;;;;;;;2.57;1.17;;;15.60;93.40;;;;;;5074436;28;20537;-67
2023/05/18 09:46:06;;;;;;;4.00;1.13;;;15.60;93.10;;;;;;5075079;28;20501;-67
2023/05/18 09:48:35;;;;;;;4.80;2.57;;;15.60;91.50;;;;;;5074399;28;20511;-67
2023/05/18 09:51:02;;;;;;;3.83;1.40;;;15.60;91.50;;;;;;5074616;28;20537;-68
2023/05/18 09:53:29;;;;;;;4.63;1.77;;;15.50;91.20;;;;;;5074125;28;20454;-67
2023/05/18 09:56:01;;;;;;;5.73;1.20;;;15.40;90.80;;;;;;5074209;28;20476;-68
2023/05/18 09:58:31;;;;;;;3.73;1.37;;;15.30;90.20;;;;;;5074332;28;20443;-68
2023/05/18 10:01:02;;;;;;;5.00;1.70;;;15.30;90.50;;;;;;5074367;28;20541;-67
2023/05/18 10:03:35;;;;;;;4.57;1.20;;;15.30;90.00;;;;;;5074292;28;20454;-67
2023/05/18 10:06:05;;;;;;;5.83;1.53;;;15.40;88.90;;;;;;5074232;28;20566;-68
2023/05/18 10:08:32;;;;;;;10.43;1.90;;;15.40;84.30;;;;;;5075237;28;20810;-67
2023/05/18 10:10:59;;;;;;;3.40;1.30;;;15.60;87.20;;;;;;5078213;28;20462;-67
2023/05/18 10:13:28;;;;;;;4.70;1.50;;;15.80;86.70;;;;;;5077541;28;20453;-68
2023/05/18 10:15:57;;;;;;;3.60;1.20;;;16.00;86.70;;;;;;5077686;28;20544;-67
2023/05/18 10:18:27;;;;;;;2.60;1.50;;;16.30;85.00;;;;;;5077769;28;20469;-67
2023/05/18 10:20:56;;;;;;;4.33;1.57;;;16.50;84.30;;;;;;5078487;28;20454;-67
2023/05/18 10:23:24;;;;;;;5.37;1.27;;;16.80;80.80;;;;;;5077859;28;20454;-67
2023/05/18 10:25:52;;;;;;;4.03;1.30;;;17.00;74.20;;;;;;5077556;28;20482;-67
2023/05/18 10:28:24;;;;;;;6.80;2.57;;;17.10;72.50;;;;;;5077709;28;20458;-67
2023/05/18 10:30:53;;;;;;;7.73;2.03;;;17.30;71.50;;;;;;5077731;28;20493;-67
2023/05/18 10:33:20;;;;;;;2.27;1.40;;;17.40;69.70;;;;;;5077678;28;20772;-67
2023/05/18 10:35:49;;;;;;;2.90;1.27;;;17.50;69.30;;;;;;5077133;28;20553;-67
2023/05/18 10:38:19;;;;;;;4.80;1.37;;;17.70;65.20;;;;;;5077052;28;20486;-67
2023/05/18 10:40:48;;;;;;;2.97;1.60;;;17.90;64.10;;;;;;5077250;28;20438;-67
2023/05/18 10:43:18;;;;;;;10.80;1.70;;;17.90;62.90;;;;;;5077234;28;20458;-67
2023/05/18 10:45:47;;;;;;;3.70;1.27;;;18.00;62.30;;;;;;5076900;28;20962;-67
2023/05/18 10:48:15;;;;;;;4.07;2.03;;;18.00;60.80;;;;;;5077025;28;20488;-66
2023/05/18 10:50:42;;;;;;;5.30;1.50;;;18.00;59.30;;;;;;5076876;28;20458;-67
2023/05/18 10:53:12;;;;;;;3.70;1.30;;;18.00;58.00;;;;;;5077322;28;20746;-67
2023/05/18 10:55:39;;;;;;;3.97;1.10;;;17.90;57.40;;;;;;5077408;28;20520;-66
2023/05/18 10:58:12;;;;;;;4.83;1.63;;;17.90;56.70;;;;;;5076798;28;20454;-67
2023/05/18 11:00:41;;;;;;;3.73;1.20;;;17.80;57.30;;;;;;5076889;28;20452;-67
2023/05/18 11:03:13;;;;;;;3.80;1.70;;;17.80;58.30;;;;;;5076573;28;20560;-67
2023/05/18 11:05:40;;;;;;;4.17;1.50;;;17.90;56.40;;;;;;5076853;28;20478;-68
2023/05/18 11:08:08;;;;;;;3.37;1.50;;;18.00;56.30;;;;;;5076829;28;20461;-67
2023/05/18 11:10:41;;;;;;;6.90;1.70;;;18.10;56.10;;;;;;5077151;28;20464;-67
2023/05/18 11:13:09;;;;;;;4.73;1.80;;;18.40;56.30;;;;;;5076397;28;20855;-67
2023/05/18 11:16:07;;;;;;;5.67;1.60;;;18.70;56.00;;;;;;5076572;28;20446;-67
2023/05/18 11:18:41;;;;;;;3.60;1.60;;;18.90;53.70;;;;;;5071858;28;20458;-67
2023/05/18 11:21:51;;;;;;;3.60;1.73;;;18.90;52.00;;;;;;5076486;28;20956;-68
2023/05/18 11:24:20;;;;;;;2.30;1.40;;;18.70;51.40;;;;;;5076100;28;20879;-68
2023/05/18 11:26:49;;;;;;;5.07;1.87;;;18.40;51.40;;;;;;5076492;28;20464;-68
2023/05/18 11:29:18;;;;;;;3.83;1.40;;;18.20;52.50;;;;;;5076276;28;20553;-67
2023/05/18 11:31:45;;;;;;;5.87;1.70;;;18.10;52.20;;;;;;5076317;28;20465;-67
2023/05/18 11:34:36;;;;;;;3.57;1.80;;;18.00;52.40;;;;;;5076385;28;20457;-68
2023/05/18 11:37:04;;;;;;;4.60;1.40;;;18.00;52.80;;;;;;5076261;28;20522;-66
2023/05/18 11:39:32;;;;;;;3.73;1.50;;;17.90;52.70;;;;;;5075635;28;20477;-67
2023/05/18 11:42:01;;;;;;;5.80;1.37;;;18.70;53.90;;;;;;5075898;28;20821;-67
2023/05/18 11:44:28;;;;;;;6.40;1.37;;;20.20;50.50;;;;;;5076085;28;20558;-68
2023/05/18 11:47:01;;;;;;;2.73;1.73;;;21.90;46.50;;;;;;5075995;28;20476;-68
2023/05/18 11:49:29;;;;;;;3.07;1.37;;;23.00;41.80;;;;;;5075750;28;20442;-68
2023/05/18 11:52:13;;;;;;;3.90;1.67;;;23.10;37.80;;;;;;5075634;28;20454;-67
2023/05/18 11:54:44;;;;;;;4.67;1.60;;;22.70;36.80;;;;;;5075698;28;20572;-67
2023/05/18 11:57:14;;;;;;;3.50;1.67;;;22.40;36.50;;;;;;5075694;28;20453;-67
2023/05/18 11:59:42;;;;;;;6.30;1.70;;;22.10;36.00;;;;;;5075877;28;20526;-67
2023/05/18 12:02:11;;;;;;;4.27;1.50;;;21.80;35.90;;;;;;5075738;28;20480;-67
2023/05/18 12:04:46;;;;;;;3.47;1.37;;;21.50;35.70;;;;;;5075455;28;20818;-67
2023/05/18 12:07:14;;;;;;;5.63;1.50;;;21.80;36.80;;;;;;5075222;28;20464;-67
2023/05/18 12:09:42;;;;;;;2.80;1.50;;;22.90;36.00;;;;;;5075536;28;20468;-67
2023/05/18 12:12:10;;;;;;;2.90;1.53;;;24.40;33.10;;;;;;5075816;28;20598;-67
2023/05/18 12:14:41;;;;;;;4.33;1.50;;;25.50;30.60;;;;;;5075857;28;20557;-67
2023/05/18 12:17:09;;;;;;;4.40;1.70;;;26.70;28.00;;;;;;5075317;28;20504;-67
2023/05/18 12:19:43;;;;;;;2.50;1.40;;;27.70;25.30;;;;;;5075271;28;20766;-67
2023/05/18 12:22:10;;;;;;;6.53;1.70;;;28.60;22.80;;;;;;5074944;28;20449;-67
2023/05/18 12:24:38;;;;;;;1.90;1.07;;;28.90;21.00;;;;;;5074880;28;20977;-67
2023/05/18 12:27:07;;;;;;;3.57;1.80;;;29.00;20.10;;;;;;5075242;28;20536;-68
2023/05/18 12:29:34;;;;;;;7.90;1.83;;;29.00;19.80;;;;;;5074827;28;20458;-67
2023/05/18 12:32:08;;;;;;;3.80;1.40;;;29.20;18.80;;;;;;5074538;28;20844;-67
2023/05/18 12:34:35;;;;;;;5.27;1.80;;;29.40;18.80;;;;;;5074864;28;20442;-67
2023/05/18 12:37:02;;;;;;;5.97;1.90;;;29.90;17.90;;;;;;5074903;28;20457;-68
2023/05/18 12:39:29;;;;;;;3.50;1.30;;;30.50;16.50;;;;;;5074566;28;20484;-67
2023/05/18 12:42:09;;;;;;;2.17;1.20;;;30.40;16.00;;;;;;5074626;28;20466;-67
2023/05/18 12:44:36;;;;;;;3.07;1.37;;;30.20;15.70;;;;;;5075367;28;20449;-67
2023/05/18 12:47:03;;;;;;;2.77;1.67;;;29.70;15.80;;;;;;5074643;28;20950;-68
2023/05/18 12:49:36;;;;;;;4.70;1.90;;;29.60;15.80;;;;;;5074863;28;20909;-68
2023/05/18 12:52:12;;;;;;;3.50;1.70;;;29.70;15.40;;;;;;5074586;28;20457;-68
2023/05/18 12:54:58;;;;;;;5.27;2.57;;;29.70;15.00;;;;;;5074646;28;20456;-69
2023/05/18 12:57:25;;;;;;;5.43;2.20;;;29.40;15.20;;;;;;5074638;28;20434;-69